createdAt,value
2022-09-03T00:01:34.740Z,99377.66
2022-09-03T00:04:12.036Z,99378.48
2022-09-03T00:06:47.067Z,99378.56
2022-09-03T00:09:30.004Z,99380.17
2022-09-03T00:12:12.428Z,99384.06
2022-09-03T00:14:52.891Z,99383.40
2022-09-03T00:17:55.723Z,99381.68
2022-09-03T00:20:45.145Z,99383.10
2022-09-03T00:23:21.023Z,99377.10
2022-09-03T00:25:51.982Z,99371.55
2022-09-03T00:28:41.804Z,99372.58
2022-09-03T00:31:39.080Z,99374.66
2022-09-03T00:34:27.313Z,99376.27
2022-09-03T00:36:55.609Z,99375.05
2022-09-03T00:39:27.394Z,99376.38
2022-09-03T00:42:21.209Z,99376.48
2022-09-03T00:44:55.921Z,99378.95
2022-09-03T00:47:48.828Z,99380.79
2022-09-03T00:50:46.853Z,99380.55
2022-09-03T00:53:39.533Z,99384.52
2022-09-03T00:56:37.855Z,99381.46
2022-09-03T00:59:11.975Z,99387.20
2022-09-03T01:01:55.777Z,99386.02
2022-09-03T01:04:43.058Z,99389.42
2022-09-03T01:07:39.395Z,99387.46
2022-09-03T01:10:13.749Z,99389.45
2022-09-03T01:13:13.332Z,99391.46
2022-09-03T01:16:27.703Z,99391.04
2022-09-03T01:19:30.375Z,99387.58
2022-09-03T01:22:10.749Z,99385.25
2022-09-03T01:24:45.161Z,99381.63
2022-09-03T01:28:02.249Z,99384.17
2022-09-03T01:30:39.098Z,99385.92
2022-09-03T01:33:27.070Z,99381.11
2022-09-03T01:36:11.474Z,99379.39
2022-09-03T01:39:03.705Z,99377.41
2022-09-03T01:42:20.237Z,99376.83
2022-09-03T01:44:52.945Z,99375.44
2022-09-03T01:47:52.195Z,99379.31
2022-09-03T01:50:46.336Z,99380.08
2022-09-03T01:53:42.195Z,99381.52
2022-09-03T01:56:29.126Z,99378.33
2022-09-03T01:59:07.849Z,99379.36
2022-09-03T02:01:49.697Z,99377.14
2022-09-03T02:04:23.337Z,99372.87
2022-09-03T02:06:52.550Z,99370.98
2022-09-03T02:09:21.474Z,99373.38
2022-09-03T02:11:59.686Z,99378.40
2022-09-03T02:14:29.219Z,99377.13
2022-09-03T02:17:00.512Z,99378.23
2022-09-03T02:19:30.454Z,99379.88
2022-09-03T02:21:58.972Z,99378.36
2022-09-03T02:24:28.645Z,99378.58
2022-09-03T02:26:57.391Z,99380.89
2022-09-03T02:29:25.694Z,99376.71
2022-09-03T02:31:56.162Z,99376.30
2022-09-03T02:34:24.544Z,99377.91
2022-09-03T02:36:52.783Z,99377.45
2022-09-03T02:39:21.175Z,99383.48
2022-09-03T02:41:57.538Z,99387.75
2022-09-03T02:44:31.854Z,99395.40
2022-09-03T02:47:03.592Z,99395.09
2022-09-03T02:49:32.933Z,99392.47
2022-09-03T02:52:06.606Z,99389.00
2022-09-03T02:54:39.780Z,99391.85
2022-09-03T02:57:15.044Z,99396.42
2022-09-03T02:59:46.559Z,99397.66
2022-09-03T03:02:15.127Z,99397.33
2022-09-03T03:04:43.542Z,99394.85
2022-09-03T03:07:11.772Z,99393.41
2022-09-03T03:09:40.041Z,99391.73
2022-09-03T03:12:10.511Z,99394.25
2022-09-03T03:14:38.774Z,99396.21
2022-09-03T03:17:07.097Z,99393.17
2022-09-03T03:19:35.418Z,99393.22
2022-09-03T03:22:03.726Z,99396.66
2022-09-03T03:24:31.950Z,99395.70
2022-09-03T03:27:00.258Z,99395.61
2022-09-03T03:29:29.156Z,99402.52
2022-09-03T03:31:58.272Z,99403.23
2022-09-03T03:34:26.524Z,99404.12
2022-09-03T03:36:54.870Z,99402.96
2022-09-03T03:39:23.279Z,99396.12
2022-09-03T03:41:52.696Z,99395.07
2022-09-03T03:44:20.942Z,99392.38
2022-09-03T03:46:49.303Z,99391.92
2022-09-03T03:49:17.519Z,99392.87
2022-09-03T03:51:45.745Z,99393.02
2022-09-03T03:54:14.497Z,99394.60
2022-09-03T03:56:50.859Z,99400.00
2022-09-03T03:59:24.265Z,99397.98
2022-09-03T04:01:55.185Z,99398.06
2022-09-03T04:04:23.547Z,99399.46
2022-09-03T04:06:51.834Z,99398.29
2022-09-03T04:09:20.157Z,99397.23
2022-09-03T04:11:48.802Z,99397.79
2022-09-03T04:14:18.303Z,99401.74
2022-09-03T04:16:47.189Z,99401.02
2022-09-03T04:19:15.571Z,99396.34
2022-09-03T04:21:44.454Z,99389.57
2022-09-03T04:24:12.692Z,99387.63
2022-09-03T04:26:40.989Z,99388.02
2022-09-03T04:29:10.746Z,99389.95
2022-09-03T04:31:40.106Z,99389.35
2022-09-03T04:34:09.515Z,99387.99
2022-09-03T04:36:37.900Z,99388.45
2022-09-03T04:39:06.214Z,99385.08
2022-09-03T04:41:34.410Z,99387.54
2022-09-03T04:44:02.836Z,99388.66
2022-09-03T04:46:33.927Z,99390.81
2022-09-03T04:49:03.605Z,99389.95
2022-09-03T04:51:32.332Z,99390.65
2022-09-03T04:54:02.422Z,99397.59
2022-09-03T04:56:33.242Z,99402.14
2022-09-03T04:59:09.675Z,99404.11
2022-09-03T05:01:39.619Z,99408.70
2022-09-03T05:04:08.908Z,99405.87
2022-09-03T05:06:37.667Z,99406.15
2022-09-03T05:09:06.639Z,99406.13
2022-09-03T05:11:35.025Z,99407.38
2022-09-03T05:14:05.989Z,99409.98
2022-09-03T05:16:34.448Z,99412.41
2022-09-03T05:19:03.889Z,99410.30
2022-09-03T05:21:32.905Z,99409.31
2022-09-03T05:24:02.084Z,99407.58
2022-09-03T05:26:33.355Z,99414.77
2022-09-03T05:29:07.661Z,99417.02
2022-09-03T05:31:39.942Z,99421.36
2022-09-03T05:34:10.631Z,99420.02
2022-09-03T05:36:45.685Z,99421.83
2022-09-03T05:39:14.019Z,99420.19
2022-09-03T05:41:42.478Z,99417.64
2022-09-03T05:44:11.104Z,99414.45
2022-09-03T05:46:39.402Z,99414.76
2022-09-03T05:49:08.011Z,99417.09
2022-09-03T05:51:39.559Z,99417.72
2022-09-03T05:54:08.985Z,99420.40
2022-09-03T05:56:42.713Z,99422.36
2022-09-03T05:59:11.407Z,99413.27
2022-09-03T06:01:45.786Z,99412.06
2022-09-03T06:04:21.052Z,99410.22
2022-09-03T06:06:50.185Z,99412.41
2022-09-03T06:09:23.264Z,99413.11
2022-09-03T06:11:54.111Z,99417.39
2022-09-03T06:14:23.917Z,99414.65
2022-09-03T06:16:53.244Z,99415.16
2022-09-03T06:19:21.749Z,99413.89
2022-09-03T06:21:50.377Z,99408.77
2022-09-03T06:24:26.291Z,99405.04
2022-09-03T06:26:57.732Z,99414.23
2022-09-03T06:29:26.324Z,99416.15
2022-09-03T06:31:55.312Z,99421.26
2022-09-03T06:34:27.420Z,99423.34
2022-09-03T06:36:55.897Z,99421.75
2022-09-03T06:39:25.787Z,99422.84
2022-09-03T06:41:55.228Z,99419.55
2022-09-03T06:44:28.108Z,99424.23
2022-09-03T06:46:56.424Z,99421.66
2022-09-03T06:49:26.407Z,99419.64
2022-09-03T06:51:54.762Z,99422.30
2022-09-03T06:54:23.374Z,99424.81
2022-09-03T06:56:51.579Z,99425.61
2022-09-03T06:59:20.005Z,99426.23
2022-09-03T07:01:48.402Z,99428.94
2022-09-03T07:04:19.327Z,99432.05
2022-09-03T07:06:48.907Z,99434.24
2022-09-03T07:09:19.238Z,99434.36
2022-09-03T07:11:48.565Z,99435.25
2022-09-03T07:14:19.182Z,99434.80
2022-09-03T07:16:49.226Z,99440.95
2022-09-03T07:19:18.666Z,99436.91
2022-09-03T07:21:50.941Z,99439.20
2022-09-03T07:24:22.509Z,99439.27
2022-09-03T07:26:51.205Z,99447.81
2022-09-03T07:29:22.772Z,99448.13
2022-09-03T07:31:52.816Z,99447.14
2022-09-03T07:34:25.670Z,99449.87
2022-09-03T07:36:55.145Z,99449.60
2022-09-03T07:39:23.849Z,99452.85
2022-09-03T07:41:52.377Z,99453.39
2022-09-03T07:44:20.936Z,99458.48
2022-09-03T07:46:51.548Z,99455.01
2022-09-03T07:49:22.283Z,99454.94
2022-09-03T07:51:54.408Z,99456.70
2022-09-03T07:54:26.198Z,99453.91
2022-09-03T07:56:56.371Z,99452.84
2022-09-03T07:59:26.259Z,99453.61
2022-09-03T08:01:54.761Z,99450.73
2022-09-03T08:04:23.067Z,99450.16
2022-09-03T08:06:55.825Z,99452.00
2022-09-03T08:09:24.627Z,99456.02
2022-09-03T08:11:53.069Z,99456.98
2022-09-03T08:14:22.171Z,99455.84
2022-09-03T08:16:50.651Z,99464.04
2022-09-03T08:19:19.838Z,99461.78
2022-09-03T08:21:48.288Z,99462.16
2022-09-03T08:24:19.283Z,99465.24
2022-09-03T08:26:52.233Z,99460.90
2022-09-03T08:29:21.841Z,99452.23
2022-09-03T08:31:50.711Z,99452.33
2022-09-03T08:34:19.932Z,99449.73
2022-09-03T08:36:48.907Z,99453.98
2022-09-03T08:39:18.503Z,99459.11
2022-09-03T08:42:06.310Z,99459.37
2022-09-03T08:44:57.785Z,99456.70
2022-09-03T08:47:45.697Z,99461.62
2022-09-03T08:50:29.485Z,99462.83
2022-09-03T08:53:13.712Z,99464.41
2022-09-03T08:55:48.085Z,99461.20
2022-09-03T08:58:22.389Z,99460.39
2022-09-03T09:01:06.049Z,99459.95
2022-09-03T09:04:08.567Z,99455.89
2022-09-03T09:07:12.251Z,99457.55
2022-09-03T09:09:58.170Z,99451.63
2022-09-03T09:12:48.250Z,99443.38
2022-09-03T09:15:33.655Z,99442.04
2022-09-03T09:18:40.603Z,99443.39
2022-09-03T09:21:21.004Z,99445.17
2022-09-03T09:23:51.788Z,99446.42
2022-09-03T09:26:22.173Z,99442.63
2022-09-03T09:29:02.953Z,99440.83
2022-09-03T09:31:32.329Z,99445.32
2022-09-03T09:34:08.791Z,99449.86
2022-09-03T09:36:45.457Z,99460.43
2022-09-03T09:39:16.294Z,99461.10
2022-09-03T09:41:58.066Z,99463.36
2022-09-03T09:44:27.975Z,99464.61
2022-09-03T09:47:09.038Z,99472.19
2022-09-03T09:49:46.243Z,99472.59
2022-09-03T09:52:17.127Z,99477.44
2022-09-03T09:54:46.449Z,99476.30
2022-09-03T09:57:18.429Z,99478.11
2022-09-03T09:59:47.092Z,99474.70
2022-09-03T10:02:28.899Z,99474.84
2022-09-03T10:05:24.047Z,99467.54
2022-09-03T10:08:05.398Z,99472.09
2022-09-03T10:10:43.542Z,99467.75
2022-09-03T10:13:30.552Z,99471.02
2022-09-03T10:16:05.126Z,99469.29
2022-09-03T10:18:36.491Z,99474.10
2022-09-03T10:21:36.658Z,99468.60
2022-09-03T10:24:26.310Z,99464.36
2022-09-03T10:26:55.810Z,99464.20
2022-09-03T10:29:30.276Z,99462.14
2022-09-03T10:32:10.998Z,99466.85
2022-09-03T10:34:58.719Z,99461.88
2022-09-03T10:37:47.913Z,99461.42
2022-09-03T10:40:42.072Z,99457.34
2022-09-03T10:43:19.346Z,99454.67
2022-09-03T10:46:06.422Z,99456.34
2022-09-03T10:48:47.261Z,99449.77
2022-09-03T10:51:49.694Z,99440.77
2022-09-03T10:54:27.083Z,99449.46
2022-09-03T10:57:17.186Z,99453.33
2022-09-03T11:00:02.052Z,99457.62
2022-09-03T11:02:58.975Z,99452.59
2022-09-03T11:05:40.367Z,99451.25
2022-09-03T11:08:24.409Z,99450.42
2022-09-03T11:11:04.090Z,99451.54
2022-09-03T11:13:59.738Z,99457.05
2022-09-03T11:16:33.292Z,99460.46
2022-09-03T11:19:06.229Z,99460.79
2022-09-03T11:21:38.009Z,99459.61
2022-09-03T11:24:13.892Z,99457.00
2022-09-03T11:26:49.039Z,99457.10
2022-09-03T11:29:46.226Z,99457.61
2022-09-03T11:32:21.921Z,99458.73
2022-09-03T11:34:52.669Z,99462.27
2022-09-03T11:37:28.163Z,99464.69
2022-09-03T11:40:20.169Z,99461.68
2022-09-03T11:42:48.935Z,99454.54
2022-09-03T11:45:36.775Z,99452.13
2022-09-03T11:48:44.288Z,99452.77
2022-09-03T11:51:30.806Z,99448.73
2022-09-03T11:54:26.074Z,99452.69
2022-09-03T11:57:13.387Z,99446.84
2022-09-03T11:59:45.122Z,99447.85
2022-09-03T12:02:35.419Z,99441.95
2022-09-03T12:05:22.602Z,99437.67
2022-09-03T12:07:50.864Z,99434.98
2022-09-03T12:10:40.670Z,99435.08
2022-09-03T12:13:24.429Z,99436.89
2022-09-03T12:16:08.616Z,99438.05
2022-09-03T12:18:38.075Z,99438.34
2022-09-03T12:21:09.789Z,99437.38
2022-09-03T12:23:49.853Z,99433.63
2022-09-03T12:26:21.109Z,99426.77
2022-09-03T12:28:54.851Z,99419.98
2022-09-03T12:31:30.182Z,99424.02
2022-09-03T12:34:04.300Z,99422.73
2022-09-03T12:36:45.970Z,99417.44
2022-09-03T12:39:15.299Z,99417.49
2022-09-03T12:41:55.850Z,99417.04
2022-09-03T12:44:53.719Z,99417.58
2022-09-03T12:47:36.456Z,99419.42
2022-09-03T12:50:16.613Z,99424.62
2022-09-03T12:52:59.528Z,99427.27
2022-09-03T12:55:51.774Z,99426.56
2022-09-03T12:58:43.366Z,99424.79
2022-09-03T13:01:19.928Z,99421.70
2022-09-03T13:03:54.994Z,99420.38
2022-09-03T13:06:27.287Z,99419.43
2022-09-03T13:09:00.586Z,99412.94
2022-09-03T13:11:33.169Z,99409.27
2022-09-03T13:14:08.391Z,99409.23
2022-09-03T13:16:45.993Z,99414.81
2022-09-03T13:19:29.821Z,99415.34
2022-09-03T13:22:32.480Z,99412.00
2022-09-03T13:25:09.733Z,99409.94
2022-09-03T13:27:54.135Z,99401.34
2022-09-03T13:30:31.436Z,99396.17
2022-09-03T13:33:07.392Z,99400.59
2022-09-03T13:36:00.756Z,99399.82
2022-09-03T13:38:54.455Z,99397.91
2022-09-03T13:41:46.679Z,99394.95
2022-09-03T13:44:23.019Z,99399.83
2022-09-03T13:47:00.535Z,99396.27
2022-09-03T13:50:06.669Z,99396.54
2022-09-03T13:52:46.852Z,99393.29
2022-09-03T13:55:32.019Z,99394.54
2022-09-03T13:58:19.650Z,99391.01
2022-09-03T14:00:52.340Z,99391.14
2022-09-03T14:03:36.362Z,99386.70
2022-09-03T14:06:07.486Z,99387.11
2022-09-03T14:09:01.260Z,99383.84
2022-09-03T14:11:54.726Z,99383.11
2022-09-03T14:14:35.237Z,99379.63
2022-09-03T14:17:06.455Z,99382.59
2022-09-03T14:19:53.259Z,99382.80
2022-09-03T14:22:34.846Z,99382.06
2022-09-03T14:25:09.498Z,99384.86
2022-09-03T14:27:37.697Z,99388.98
2022-09-03T14:30:17.768Z,99385.92
2022-09-03T14:33:10.419Z,99389.64
2022-09-03T14:36:22.267Z,99389.64
2022-09-03T14:39:32.939Z,99386.12
2022-09-03T14:42:36.546Z,99380.48
2022-09-03T14:45:26.235Z,99377.43
2022-09-03T14:48:40.047Z,99382.23
2022-09-03T14:52:01.442Z,99385.12
2022-09-03T14:55:03.853Z,99390.99
2022-09-03T14:57:50.870Z,99393.51
2022-09-03T15:00:28.422Z,99384.95
2022-09-03T15:03:05.553Z,99380.61
2022-09-03T15:06:11.773Z,99379.77
2022-09-03T15:09:37.510Z,99378.81
2022-09-03T15:12:24.130Z,99385.46
2022-09-03T15:14:57.402Z,99387.98
2022-09-03T15:17:47.592Z,99390.91
2022-09-03T15:20:51.591Z,99390.47
2022-09-03T15:23:29.435Z,99391.15
2022-09-03T15:26:34.436Z,99393.30
2022-09-03T15:29:23.935Z,99388.02
2022-09-03T15:31:59.354Z,99384.78
2022-09-03T15:34:46.140Z,99380.06
2022-09-03T15:37:23.555Z,99381.13
2022-09-03T15:40:21.118Z,99380.45
2022-09-03T15:42:55.783Z,99386.73
2022-09-03T15:45:58.491Z,99383.81
2022-09-03T15:48:53.741Z,99379.58
2022-09-03T15:51:43.311Z,99382.81
2022-09-03T15:54:33.123Z,99385.19
2022-09-03T15:57:05.051Z,99387.96
2022-09-03T15:59:47.580Z,99384.32
2022-09-03T16:02:31.993Z,99383.30
2022-09-03T16:05:11.574Z,99386.94
2022-09-03T16:08:07.194Z,99381.81
2022-09-03T16:11:03.203Z,99379.12
2022-09-03T16:13:58.548Z,99374.85
2022-09-03T16:16:44.371Z,99375.18
2022-09-03T16:19:45.678Z,99372.38
2022-09-03T16:22:22.662Z,99373.48
2022-09-03T16:24:58.545Z,99371.45
2022-09-03T16:27:33.059Z,99369.23
2022-09-03T16:30:10.313Z,99370.84
2022-09-03T16:33:03.755Z,99369.23
2022-09-03T16:35:53.457Z,99365.57
2022-09-03T16:38:48.557Z,99368.38
2022-09-03T16:41:35.559Z,99371.98
2022-09-03T16:44:16.238Z,99373.94
2022-09-03T16:46:49.875Z,99376.35
2022-09-03T16:49:47.132Z,99376.47
2022-09-03T16:52:19.866Z,99371.73
2022-09-03T16:55:15.256Z,99375.31
2022-09-03T16:58:12.207Z,99378.57
2022-09-03T17:00:58.241Z,99377.90
2022-09-03T17:03:41.627Z,99383.58
2022-09-03T17:06:22.539Z,99385.05
2022-09-03T17:09:13.637Z,99385.44
2022-09-03T17:12:00.429Z,99385.92
2022-09-03T17:14:41.029Z,99386.54
2022-09-03T17:17:12.372Z,99386.63
2022-09-03T17:20:04.406Z,99392.30
2022-09-03T17:22:44.109Z,99393.89
2022-09-03T17:25:25.236Z,99394.48
2022-09-03T17:28:10.055Z,99396.52
2022-09-03T17:30:57.133Z,99395.51
2022-09-03T17:34:05.737Z,99396.93
2022-09-03T17:36:38.838Z,99402.85
2022-09-03T17:39:19.116Z,99405.95
2022-09-03T17:41:53.459Z,99412.95
2022-09-03T17:44:22.142Z,99415.11
2022-09-03T17:46:57.136Z,99422.37
2022-09-03T17:49:34.200Z,99424.84
2022-09-03T17:52:14.194Z,99427.27
2022-09-03T17:54:48.131Z,99430.73
2022-09-03T17:57:26.932Z,99435.30
2022-09-03T18:00:07.200Z,99435.92
2022-09-03T18:02:56.592Z,99434.50
2022-09-03T18:05:24.815Z,99433.20
2022-09-03T18:08:11.807Z,99431.74
2022-09-03T18:11:09.653Z,99431.86
2022-09-03T18:13:55.871Z,99433.65
2022-09-03T18:16:32.482Z,99434.31
2022-09-03T18:19:08.802Z,99436.50
2022-09-03T18:21:57.990Z,99436.13
2022-09-03T18:25:03.464Z,99439.29
2022-09-03T18:28:06.110Z,99437.10
2022-09-03T18:30:53.842Z,99436.84
2022-09-03T18:33:44.013Z,99437.80
2022-09-03T18:36:31.867Z,99442.26
2022-09-03T18:39:42.958Z,99446.48
2022-09-03T18:42:46.168Z,99447.92
2022-09-03T18:45:56.278Z,99445.91
2022-09-03T18:48:52.167Z,99448.42
2022-09-03T18:51:58.028Z,99448.76
2022-09-03T18:55:12.738Z,99445.48
2022-09-03T18:58:22.394Z,99443.37
2022-09-03T19:01:27.490Z,99445.84
2022-09-03T19:04:23.619Z,99454.14
2022-09-03T19:07:25.858Z,99452.64
2022-09-03T19:10:18.233Z,99452.41
2022-09-03T19:13:51.858Z,99452.73
2022-09-03T19:16:57.207Z,99452.28
2022-09-03T19:19:56.177Z,99452.80
2022-09-03T19:22:55.089Z,99448.66
2022-09-03T19:25:43.770Z,99450.70
2022-09-03T19:28:36.854Z,99449.48
2022-09-03T19:31:26.845Z,99451.05
2022-09-03T19:34:36.419Z,99454.34
2022-09-03T19:37:41.134Z,99450.55
2022-09-03T19:40:40.104Z,99456.46
2022-09-03T19:43:59.354Z,99457.79
2022-09-03T19:46:55.067Z,99464.96
2022-09-03T19:50:23.810Z,99466.79
2022-09-03T19:53:16.837Z,99469.38
2022-09-03T19:56:08.849Z,99472.54
2022-09-03T19:59:00.623Z,99477.31
2022-09-03T20:01:54.558Z,99484.68
2022-09-03T20:04:51.129Z,99486.19
2022-09-03T20:07:39.864Z,99489.37
2022-09-03T20:10:23.581Z,99489.89
2022-09-03T20:13:15.327Z,99493.32
2022-09-03T20:15:43.981Z,99490.83
2022-09-03T20:18:25.128Z,99486.83
2022-09-03T20:21:31.707Z,99492.92
2022-09-03T20:24:28.910Z,99498.11
2022-09-03T20:27:00.067Z,99502.44
2022-09-03T20:29:52.847Z,99503.23
2022-09-03T20:32:40.065Z,99505.27
2022-09-03T20:35:28.245Z,99508.52
2022-09-03T20:38:06.275Z,99507.65
2022-09-03T20:41:03.024Z,99507.89
2022-09-03T20:44:09.801Z,99504.11
2022-09-03T20:47:21.499Z,99503.39
2022-09-03T20:49:52.606Z,99506.34
2022-09-03T20:52:26.883Z,99500.27
2022-09-03T20:55:40.829Z,99504.95
2022-09-03T20:58:27.746Z,99511.35
2022-09-03T21:01:08.912Z,99512.64
2022-09-03T21:03:50.224Z,99515.03
2022-09-03T21:06:38.882Z,99512.96
2022-09-03T21:09:44.879Z,99508.38
2022-09-03T21:12:45.569Z,99504.63
2022-09-03T21:15:22.595Z,99503.73
2022-09-03T21:18:47.875Z,99503.51
2022-09-03T21:21:36.272Z,99505.58
2022-09-03T21:24:19.743Z,99506.97
2022-09-03T21:26:53.954Z,99508.17
2022-09-03T21:29:31.908Z,99504.55
2022-09-03T21:32:16.878Z,99503.64
2022-09-03T21:34:56.041Z,99506.73
2022-09-03T21:37:24.401Z,99504.77
2022-09-03T21:39:57.223Z,99503.34
2022-09-03T21:42:42.563Z,99504.32
2022-09-03T21:45:29.686Z,99504.80
2022-09-03T21:48:10.237Z,99505.44
2022-09-03T21:51:08.032Z,99508.01
2022-09-03T21:53:49.607Z,99509.69
2022-09-03T21:56:39.865Z,99508.94
2022-09-03T21:59:44.822Z,99509.71
2022-09-03T22:02:26.390Z,99513.02
2022-09-03T22:04:56.980Z,99516.23
2022-09-03T22:07:31.199Z,99517.84
2022-09-03T22:10:21.046Z,99516.80
2022-09-03T22:13:00.889Z,99514.20
2022-09-03T22:15:30.394Z,99511.56
2022-09-03T22:18:15.463Z,99514.17
2022-09-03T22:20:46.102Z,99514.14
2022-09-03T22:23:24.133Z,99518.45
2022-09-03T22:26:14.635Z,99519.40
2022-09-03T22:28:56.189Z,99518.73
2022-09-03T22:31:35.728Z,99517.63
2022-09-03T22:34:31.755Z,99518.84
2022-09-03T22:37:09.998Z,99521.50
2022-09-03T22:39:39.820Z,99524.09
2022-09-03T22:42:41.251Z,99521.41
2022-09-03T22:45:18.974Z,99519.52
2022-09-03T22:48:32.100Z,99521.00
2022-09-03T22:51:02.934Z,99514.80
2022-09-03T22:53:59.370Z,99514.09
2022-09-03T22:56:34.283Z,99512.73
2022-09-03T22:59:16.592Z,99513.18
2022-09-03T23:02:00.906Z,99513.25
2022-09-03T23:04:49.327Z,99512.27
2022-09-03T23:07:35.162Z,99513.67
2022-09-03T23:10:11.962Z,99510.88
2022-09-03T23:12:46.215Z,99506.64
2022-09-03T23:15:22.431Z,99503.74
2022-09-03T23:18:05.526Z,99505.26
2022-09-03T23:20:37.966Z,99507.56
2022-09-03T23:23:19.343Z,99500.95
2022-09-03T23:26:37.769Z,99505.57
2022-09-03T23:29:16.241Z,99512.89
2022-09-03T23:31:44.562Z,99512.52
2022-09-03T23:34:13.338Z,99510.38
2022-09-03T23:40:19.493Z,99510.77
2022-09-03T23:43:33.430Z,99515.61
2022-09-03T23:46:10.852Z,99522.24
2022-09-03T23:49:04.602Z,99522.95
2022-09-03T23:51:54.469Z,99524.56
2022-09-03T23:54:48.498Z,99522.41
2022-09-03T23:57:39.585Z,99518.48
